createdAt,value
2019-01-12T03:14:09.369Z,-0.24
2019-01-12T03:16:38.485Z,-0.18
2019-01-12T03:19:07.602Z,-0.19
2019-01-12T03:21:37.740Z,-0.14
2019-01-12T03:24:06.806Z,-0.11
2019-01-12T03:26:44.742Z,-0.10
2019-01-12T03:29:14.816Z,-0.11
2019-01-12T03:34:19.570Z,-0.03
2019-01-12T03:36:48.603Z,-0.05
2019-01-12T03:39:17.658Z,0.00
2019-01-12T03:41:46.699Z,-0.01
2019-01-12T03:44:15.792Z,0.02
2019-01-12T03:49:23.580Z,0.08
2019-01-12T03:51:52.710Z,0.11
2019-01-12T03:54:21.799Z,0.08
2019-01-12T03:56:50.855Z,0.10
2019-01-12T03:59:19.899Z,0.22
2019-01-12T04:01:48.952Z,0.19
2019-01-12T04:04:17.991Z,0.22
2019-01-12T04:09:23.851Z,0.25
2019-01-12T04:11:52.971Z,0.26
2019-01-12T04:14:22.022Z,0.28
2019-01-12T04:16:51.169Z,0.24
2019-01-12T04:19:20.329Z,0.23
2019-01-12T04:21:49.377Z,0.26
2019-01-12T04:24:18.396Z,0.27
2019-01-12T04:26:47.484Z,0.29
2019-01-12T04:29:16.577Z,0.28
2019-01-12T04:31:45.594Z,0.32
2019-01-12T04:34:14.681Z,0.33
2019-01-12T04:36:44.812Z,0.30
2019-01-12T04:41:49.584Z,0.29
2019-01-12T04:44:18.644Z,0.30
2019-01-12T04:46:47.674Z,0.30
2019-01-12T04:49:16.716Z,0.35
2019-01-12T04:51:45.921Z,0.36
2019-01-12T04:54:14.952Z,0.38
2019-01-12T04:56:44.047Z,0.38
2019-01-12T04:59:13.149Z,0.39
2019-01-12T05:01:42.167Z,0.41
2019-01-12T05:04:11.352Z,0.37
2019-01-12T05:09:16.651Z,0.43
2019-01-12T05:14:21.433Z,0.43
2019-01-12T05:16:50.462Z,0.45
2019-01-12T05:19:19.508Z,0.48
2019-01-12T05:24:24.223Z,0.46
2019-01-12T05:26:53.283Z,0.42
2019-01-12T05:29:22.303Z,0.45
2019-01-12T05:31:51.376Z,0.50
2019-01-12T05:34:20.460Z,0.55
2019-01-12T05:36:49.489Z,0.49
2019-01-12T05:41:55.391Z,0.58
2019-01-12T05:44:24.464Z,0.55
2019-01-12T05:46:53.631Z,0.59
2019-01-12T05:49:22.676Z,0.55
2019-01-12T05:51:51.757Z,0.50
2019-01-12T05:54:20.788Z,0.46
2019-01-12T05:56:49.875Z,0.48
2019-01-12T05:59:18.977Z,0.40
2019-01-12T06:01:48.076Z,0.41
2019-01-12T06:04:17.133Z,0.41
2019-01-12T06:06:46.188Z,0.41
2019-01-12T06:09:16.211Z,0.39
2019-01-12T06:11:47.238Z,0.36
2019-01-12T06:14:16.318Z,0.44
2019-01-12T06:16:45.364Z,0.44
2019-01-12T06:19:14.473Z,0.45
2019-01-12T06:21:55.228Z,0.45
2019-01-12T06:24:24.540Z,0.47
2019-01-12T06:26:54.073Z,0.46
2019-01-12T06:32:05.593Z,0.50
2019-01-12T06:34:35.392Z,0.49
2019-01-12T06:37:04.514Z,0.54
2019-01-12T06:39:33.540Z,0.53
2019-01-12T06:42:02.601Z,0.51
2019-01-12T06:44:31.639Z,0.52
2019-01-12T06:47:00.692Z,0.48
2019-01-12T06:49:29.755Z,0.47
2019-01-12T06:54:14.707Z,0.52
2019-01-12T06:56:43.802Z,0.50
2019-01-12T06:59:12.903Z,0.52
2019-01-12T07:01:42.951Z,0.51
2019-01-12T07:04:18.855Z,0.56
2019-01-12T07:06:48.849Z,0.52
2019-01-12T07:09:17.936Z,0.59
2019-01-12T07:11:46.994Z,0.54
2019-01-12T07:14:16.150Z,0.62
2019-01-12T07:16:46.201Z,0.63
2019-01-12T07:19:15.262Z,0.64
2019-01-12T07:21:44.300Z,0.68
2019-01-12T07:24:13.400Z,0.73
2019-01-12T07:26:42.970Z,0.78
2019-01-12T07:29:12.036Z,0.74
2019-01-12T07:31:41.092Z,0.77
2019-01-12T07:34:11.130Z,0.78
2019-01-12T07:36:40.175Z,0.74
2019-01-12T07:39:09.202Z,0.75
2019-01-12T07:41:38.280Z,0.75
2019-01-12T07:44:07.337Z,0.75
2019-01-12T07:46:41.433Z,0.79
2019-01-12T07:49:10.555Z,0.81
2019-01-12T07:51:39.601Z,0.79
2019-01-12T07:54:10.485Z,0.82
2019-01-12T07:56:39.558Z,0.90
2019-01-12T08:01:47.301Z,0.86
2019-01-12T08:04:16.594Z,0.87
2019-01-12T08:06:46.674Z,1.01
2019-01-12T08:09:15.766Z,0.94
2019-01-12T08:11:44.881Z,0.99
2019-01-12T08:14:13.949Z,1.07
2019-01-12T08:16:43.025Z,1.06
2019-01-12T08:19:12.423Z,1.12
2019-01-12T08:21:42.999Z,1.14
2019-01-12T08:24:12.160Z,1.14
2019-01-12T08:26:41.229Z,1.11
2019-01-12T08:29:14.604Z,1.09
2019-01-12T08:31:43.903Z,1.05
2019-01-12T08:34:12.997Z,1.12
2019-01-12T08:36:42.067Z,1.17
2019-01-12T08:39:11.119Z,1.22
2019-01-12T08:41:40.165Z,1.34
2019-01-12T08:44:09.211Z,1.27
2019-01-12T08:46:38.286Z,1.33
2019-01-12T08:49:07.327Z,1.26
2019-01-12T08:51:37.531Z,1.30
2019-01-12T08:54:06.555Z,1.24
2019-01-12T08:56:38.392Z,1.31
2019-01-12T08:59:05.867Z,1.42
2019-01-12T09:04:10.680Z,1.50
2019-01-12T09:06:40.700Z,1.46
2019-01-12T09:09:09.766Z,1.39
2019-01-12T09:11:43.548Z,1.47
2019-01-12T09:14:12.810Z,1.49
2019-01-12T09:16:41.877Z,1.45
2019-01-12T09:19:57.903Z,1.47
2019-01-12T09:22:26.987Z,1.54
2019-01-12T09:24:56.064Z,1.57
2019-01-12T09:27:25.119Z,1.59
2019-01-12T09:29:54.415Z,1.50
2019-01-12T09:32:23.475Z,1.63
2019-01-12T09:37:31.272Z,1.76
2019-01-12T09:40:01.412Z,1.71
2019-01-12T09:42:30.458Z,1.67
2019-01-12T09:47:35.223Z,1.67
2019-01-12T09:50:04.284Z,1.83
2019-01-12T09:52:33.555Z,2.05
2019-01-12T09:55:03.831Z,1.95
2019-01-12T09:57:33.957Z,1.94
2019-01-12T10:00:03.013Z,1.88
2019-01-12T10:02:32.190Z,1.97
2019-01-12T10:05:01.976Z,1.88
2019-01-12T10:07:32.949Z,1.87
2019-01-12T10:10:01.985Z,2.00
2019-01-12T10:12:31.156Z,1.92
2019-01-12T10:15:06.412Z,1.87
2019-01-12T10:20:15.763Z,1.83
2019-01-12T10:22:44.869Z,1.96
2019-01-12T10:25:14.023Z,1.88
2019-01-12T10:27:43.171Z,1.97
2019-01-12T10:30:23.202Z,1.86
2019-01-12T10:32:52.275Z,1.86
2019-01-12T10:35:21.483Z,1.92
2019-01-12T10:37:50.525Z,1.92
2019-01-12T10:40:19.563Z,1.97
2019-01-12T10:42:48.605Z,2.05
2019-01-12T10:45:18.419Z,2.13
2019-01-12T10:47:47.608Z,2.13
2019-01-12T10:52:58.899Z,2.17
2019-01-12T10:58:10.329Z,2.18
2019-01-12T11:00:40.415Z,2.23
2019-01-12T11:03:09.474Z,2.33
2019-01-12T11:05:38.522Z,2.47
2019-01-12T11:08:07.581Z,2.42
2019-01-12T11:12:49.036Z,2.55
2019-01-12T11:15:18.957Z,2.52
2019-01-12T11:17:47.983Z,2.48
2019-01-12T11:20:17.077Z,2.70
2019-01-12T11:22:46.203Z,2.68
2019-01-12T11:25:15.236Z,2.62
2019-01-12T11:30:20.133Z,2.60
2019-01-12T11:32:49.463Z,2.56
2019-01-12T11:35:18.656Z,2.66
2019-01-12T11:37:47.930Z,2.61
2019-01-12T11:40:23.810Z,2.59
2019-01-12T11:42:53.355Z,2.79
2019-01-12T11:45:22.399Z,3.10
2019-01-12T11:47:51.473Z,3.40
2019-01-12T11:50:21.562Z,3.37
2019-01-12T11:52:51.131Z,3.36
2019-01-12T11:55:20.171Z,3.14
2019-01-12T11:57:49.366Z,3.09
2019-01-12T12:00:21.322Z,3.08
2019-01-12T12:02:50.350Z,3.31
2019-01-12T12:05:19.610Z,3.05
2019-01-12T12:07:48.654Z,2.97
2019-01-12T12:10:18.660Z,3.03
2019-01-12T12:12:47.690Z,3.08
2019-01-12T12:15:16.774Z,2.88
2019-01-12T12:17:45.864Z,3.00
2019-01-12T12:20:19.552Z,3.22
2019-01-12T12:22:48.577Z,3.68
2019-01-12T12:25:23.807Z,3.43
2019-01-12T12:27:52.860Z,4.59
2019-01-12T12:30:22.747Z,4.15
2019-01-12T12:32:51.768Z,4.00
2019-01-12T12:37:57.504Z,3.62
2019-01-12T12:40:26.927Z,3.40
2019-01-12T12:45:34.648Z,3.66
2019-01-12T12:48:03.696Z,3.75
2019-01-12T12:50:32.751Z,3.25
2019-01-12T12:53:01.823Z,3.31
2019-01-12T12:55:32.038Z,3.25
2019-01-12T12:58:01.082Z,3.22
2019-01-12T13:00:30.264Z,3.11
2019-01-12T13:02:59.314Z,2.97
2019-01-12T13:05:28.354Z,3.04
2019-01-12T13:08:04.218Z,2.97
2019-01-12T13:10:33.541Z,3.00
2019-01-12T13:13:02.835Z,3.07
2019-01-12T13:15:32.339Z,2.76
2019-01-12T13:18:01.635Z,2.99
2019-01-12T13:20:30.788Z,2.99
2019-01-12T13:22:59.839Z,2.97
2019-01-12T13:28:04.566Z,3.07
2019-01-12T13:30:33.612Z,2.99
2019-01-12T13:33:02.694Z,3.03
2019-01-12T13:43:24.909Z,3.04
2019-01-12T13:45:54.201Z,2.89
2019-01-12T13:48:23.239Z,2.83
2019-01-12T13:50:55.149Z,2.78
2019-01-12T13:53:24.288Z,2.70
2019-01-12T13:55:53.324Z,2.74
2019-01-12T13:58:22.462Z,2.71
2019-01-12T14:00:51.502Z,2.59
2019-01-12T14:03:20.553Z,2.61
2019-01-12T14:05:50.931Z,2.63
2019-01-12T14:08:19.981Z,2.58
2019-01-12T14:10:49.948Z,2.53
2019-01-12T14:13:19.144Z,2.50
2019-01-12T14:15:48.158Z,2.47
2019-01-12T14:18:22.543Z,2.45
2019-01-12T14:20:46.342Z,2.47
2019-01-12T14:23:15.730Z,2.50
2019-01-12T14:25:44.762Z,2.40
2019-01-12T14:28:13.821Z,2.44
2019-01-12T14:30:42.855Z,2.32
2019-01-12T14:33:11.986Z,2.26
2019-01-12T14:35:41.090Z,2.27
2019-01-12T14:38:10.411Z,2.19
2019-01-12T14:40:39.537Z,2.16
2019-01-12T14:43:08.671Z,2.16
2019-01-12T14:45:37.918Z,2.14
2019-01-12T14:48:07.019Z,2.12
2019-01-12T14:50:36.368Z,2.10
2019-01-12T14:53:06.234Z,2.12
2019-01-12T14:55:39.815Z,2.10
2019-01-12T14:58:09.947Z,2.09
2019-01-12T15:00:38.986Z,2.09
2019-01-12T15:03:08.300Z,2.00
2019-01-12T15:05:37.356Z,2.01
2019-01-12T15:08:06.416Z,1.95
2019-01-12T15:10:35.688Z,1.87
2019-01-12T15:13:04.788Z,1.86
2019-01-12T15:15:33.873Z,1.87
2019-01-12T15:18:03.452Z,1.80
2019-01-12T15:20:32.566Z,1.83
2019-01-12T15:25:39.332Z,1.71
2019-01-12T15:28:09.673Z,1.78
2019-01-12T15:30:38.851Z,1.75
2019-01-12T15:33:08.634Z,1.76
2019-01-12T15:35:37.751Z,1.80
2019-01-12T15:40:43.613Z,1.71
2019-01-12T15:43:12.698Z,1.72
2019-01-12T15:45:41.747Z,1.77
2019-01-12T15:48:13.030Z,1.72
2019-01-12T15:50:42.077Z,1.77
2019-01-12T15:53:11.130Z,1.78
2019-01-12T16:00:53.908Z,1.79
2019-01-12T16:03:22.995Z,1.77
2019-01-12T16:05:52.361Z,1.79
2019-01-12T16:08:21.616Z,1.80
2019-01-12T16:10:50.648Z,1.78
2019-01-12T16:13:19.735Z,1.79
2019-01-12T16:15:48.739Z,1.91
2019-01-12T16:20:53.543Z,1.88
2019-01-12T16:23:22.553Z,1.96
2019-01-12T16:25:51.639Z,1.91
2019-01-12T16:28:23.419Z,1.87
2019-01-12T16:30:49.806Z,1.89
2019-01-12T16:33:18.847Z,1.89
2019-01-12T16:35:48.045Z,1.88
2019-01-12T16:38:17.091Z,1.87
2019-01-12T16:40:48.761Z,1.81
2019-01-12T16:43:17.789Z,1.91
2019-01-12T16:45:46.836Z,1.91
2019-01-12T16:48:15.872Z,1.98
2019-01-12T16:50:44.986Z,1.93
2019-01-12T16:55:50.935Z,2.05
2019-01-12T16:58:19.973Z,2.08
2019-01-12T17:00:49.067Z,2.11
2019-01-12T17:03:21.683Z,2.10
2019-01-12T17:05:51.703Z,2.06
2019-01-12T17:08:20.741Z,2.06
2019-01-12T17:10:49.796Z,2.04
2019-01-12T17:13:18.831Z,2.18
2019-01-12T17:15:47.906Z,2.13
2019-01-12T17:18:16.972Z,2.16
2019-01-12T17:20:46.147Z,2.19
2019-01-12T17:23:19.215Z,2.19
2019-01-12T17:25:48.254Z,2.23
2019-01-12T17:28:17.313Z,2.27
2019-01-12T17:30:46.350Z,2.28
2019-01-12T17:33:18.536Z,2.34
2019-01-12T17:35:47.571Z,2.34
2019-01-12T17:38:17.225Z,2.35
2019-01-12T17:40:46.271Z,2.42
2019-01-12T17:43:15.374Z,2.43
2019-01-12T17:45:44.479Z,2.47
2019-01-12T17:48:13.528Z,2.42
2019-01-12T17:50:42.563Z,2.42
2019-01-12T17:53:11.602Z,2.50
2019-01-12T17:55:42.585Z,2.50
2019-01-12T17:58:11.631Z,2.54
2019-01-12T18:00:41.011Z,2.49
2019-01-12T18:05:45.778Z,2.54
2019-01-12T18:08:15.834Z,2.56
2019-01-12T18:10:44.930Z,2.50
2019-01-12T18:13:14.913Z,2.45
2019-01-12T18:15:43.944Z,2.53
2019-01-12T18:18:13.933Z,2.55
2019-01-12T18:20:43.935Z,2.50
2019-01-12T18:25:48.741Z,2.33
2019-01-12T18:28:17.784Z,2.35
2019-01-12T18:30:46.839Z,2.25
2019-01-12T18:33:16.804Z,2.10
2019-01-12T18:35:46.839Z,1.96
2019-01-12T18:38:15.866Z,1.79
2019-01-12T18:40:44.962Z,1.59
2019-01-12T18:43:14.023Z,1.50
2019-01-12T18:45:43.059Z,1.43
2019-01-12T18:48:12.191Z,1.44
2019-01-12T18:50:41.248Z,1.40
2019-01-12T18:53:10.314Z,1.35
2019-01-12T18:58:14.698Z,1.34
2019-01-12T19:00:45.238Z,1.30
2019-01-12T19:03:13.823Z,1.22
2019-01-12T19:05:42.367Z,1.23
2019-01-12T19:08:10.964Z,1.23
2019-01-12T19:10:41.707Z,1.24
2019-01-12T19:13:10.244Z,1.24
2019-01-12T19:15:38.830Z,1.36
2019-01-12T19:18:07.376Z,1.38
2019-01-12T19:20:35.918Z,1.32
2019-01-12T19:23:04.461Z,1.31
2019-01-12T19:25:38.782Z,1.25
2019-01-12T19:28:07.315Z,1.21
2019-01-12T19:30:35.855Z,1.14
2019-01-12T19:33:04.387Z,1.10
2019-01-12T19:35:36.849Z,1.16
2019-01-12T19:38:05.378Z,1.11
2019-01-12T19:40:33.922Z,1.16
2019-01-12T19:43:02.576Z,1.12
2019-01-12T19:45:31.082Z,1.11
2019-01-12T19:47:59.609Z,1.13
2019-01-12T19:50:28.357Z,1.13
2019-01-12T19:52:56.910Z,1.08
2019-01-12T19:55:25.445Z,1.07
2019-01-12T19:57:53.963Z,1.06
2019-01-12T20:00:23.414Z,0.96
2019-01-12T20:02:52.044Z,0.95
2019-01-12T20:05:21.524Z,0.97
2019-01-12T20:07:53.878Z,0.88
2019-01-12T20:10:22.407Z,0.89
2019-01-12T20:12:54.275Z,0.85
2019-01-12T20:15:27.862Z,0.88
2019-01-12T20:17:56.408Z,0.90
2019-01-12T20:20:24.949Z,0.89
2019-01-12T20:22:53.517Z,0.92
2019-01-12T20:25:22.854Z,0.96
2019-01-12T20:27:51.375Z,0.97
2019-01-12T20:30:25.375Z,0.95
2019-01-12T20:32:56.350Z,0.92
2019-01-12T20:35:35.080Z,0.91
2019-01-12T20:38:08.278Z,0.92
2019-01-12T20:40:42.432Z,0.85
2019-01-12T20:46:29.854Z,0.92
2019-01-12T20:49:01.722Z,0.85
2019-01-12T20:54:49.839Z,0.89
2019-01-12T21:00:42.028Z,0.95
2019-01-12T21:03:31.059Z,1.01
2019-01-12T21:06:01.512Z,0.99
2019-01-12T21:08:44.243Z,1.02
2019-01-12T21:11:25.227Z,0.99
2019-01-12T21:14:02.559Z,1.00
2019-01-12T21:16:32.087Z,1.01
2019-01-12T21:19:00.641Z,1.05
2019-01-12T21:21:29.176Z,1.00
2019-01-12T21:23:57.730Z,0.98
2019-01-12T21:26:26.359Z,1.00
2019-01-12T21:28:54.918Z,1.05
2019-01-12T21:31:23.584Z,1.07
2019-01-12T21:33:52.232Z,1.05
2019-01-12T21:36:21.754Z,1.09
2019-01-12T21:38:50.806Z,1.09
2019-01-12T21:41:19.961Z,1.12
2019-01-12T21:43:51.807Z,1.14
2019-01-12T21:46:24.728Z,1.09
2019-01-12T21:48:53.555Z,1.13
2019-01-12T21:51:22.138Z,1.05
2019-01-12T21:53:50.668Z,1.03
2019-01-12T21:56:19.303Z,1.02
2019-01-12T21:58:47.893Z,0.97
2019-01-12T22:01:19.782Z,1.00
2019-01-12T22:03:48.342Z,1.00
2019-01-12T22:06:17.023Z,0.98
2019-01-12T22:08:45.597Z,0.91
2019-01-12T22:11:14.097Z,0.89
2019-01-12T22:13:42.762Z,0.87
2019-01-12T22:16:11.584Z,0.83
2019-01-12T22:18:40.304Z,0.83
2019-01-12T22:21:08.835Z,0.85
2019-01-12T22:23:37.448Z,0.91
2019-01-12T22:26:06.878Z,0.88
2019-01-12T22:28:35.694Z,0.88
2019-01-12T22:31:04.405Z,0.88
2019-01-12T22:33:34.998Z,0.87
2019-01-12T22:36:03.846Z,0.90
2019-01-12T22:38:32.518Z,0.95
2019-01-12T22:41:01.047Z,0.99
2019-01-12T22:43:29.606Z,0.98
2019-01-12T22:45:59.086Z,0.99
2019-01-12T22:48:27.651Z,1.02
2019-01-12T22:50:56.270Z,1.02
2019-01-12T22:53:24.804Z,1.01
2019-01-12T22:55:55.285Z,0.96
2019-01-12T22:58:23.816Z,0.97
2019-01-12T23:00:56.225Z,0.98
2019-01-12T23:03:24.801Z,1.04
2019-01-12T23:06:05.130Z,1.01
2019-01-12T23:08:34.467Z,1.04
2019-01-12T23:11:03.045Z,0.99
2019-01-12T23:13:31.571Z,0.92
2019-01-12T23:16:00.105Z,1.03
2019-01-12T23:18:28.654Z,1.06
2019-01-12T23:20:57.925Z,1.01
2019-01-12T23:23:26.535Z,1.01
2019-01-12T23:26:05.710Z,1.04
2019-01-12T23:28:35.286Z,1.08
2019-01-12T23:31:03.850Z,1.08
2019-01-12T23:33:32.381Z,1.11
2019-01-12T23:36:05.979Z,1.13
2019-01-12T23:38:34.554Z,1.07
2019-01-12T23:41:03.090Z,1.09
2019-01-12T23:43:31.597Z,1.08
2019-01-12T23:46:00.186Z,1.08
2019-01-12T23:48:28.693Z,1.11
2019-01-12T23:50:57.250Z,1.15
2019-01-12T23:53:25.771Z,1.15
2019-01-12T23:55:54.314Z,1.12
2019-01-12T23:58:22.873Z,1.11
